Time;durP1;ratioP1;P1;durP2;ratioP2;P2;SDS_P1;SDS_P2;PMS_P1;PMS_P2;Temp;Humidity;BMP_temperature;BMP_pressure;BME280_temperature;BME280_humidity;BME280_pressure;Samples;Min_cycle;Max_cycle;Signal;HPM_P1;HPM_P2
2021/01/06 00:01:12;;;;;;;1.48;1.30;;;0.70;99.90;;;;;;5062871;28;20104;-77
2021/01/06 00:03:38;;;;;;;2.47;1.30;;;0.70;99.90;;;;;;5049298;28;20029;-76
2021/01/06 00:06:08;;;;;;;3.15;1.67;;;0.70;99.90;;;;;;5063351;28;20506;-77
2021/01/06 00:08:35;;;;;;;2.72;1.60;;;0.70;99.90;;;;;;5082036;28;20499;-76
2021/01/06 00:11:02;;;;;;;2.08;1.52;;;0.60;99.90;;;;;;5066564;28;20036;-76
2021/01/06 00:13:28;;;;;;;3.17;1.60;;;0.70;99.90;;;;;;5041074;28;20033;-77
2021/01/06 00:15:56;;;;;;;2.40;1.48;;;0.70;99.90;;;;;;5069117;28;20023;-76
2021/01/06 00:18:24;;;;;;;2.67;1.90;;;0.70;99.90;;;;;;5083259;28;20024;-77
2021/01/06 00:20:50;;;;;;;1.98;1.58;;;0.80;99.90;;;;;;5079787;28;20028;-77
2021/01/06 00:23:16;;;;;;;2.30;1.42;;;0.80;99.90;;;;;;5058865;28;20033;-77
2021/01/06 00:25:42;;;;;;;1.70;1.45;;;0.70;99.90;;;;;;5040719;28;20399;-77
2021/01/06 00:28:10;;;;;;;2.55;1.80;;;0.70;99.90;;;;;;5057991;28;20030;-77
2021/01/06 00:30:38;;;;;;;2.00;1.30;;;0.70;99.90;;;;;;5074969;28;20024;-77
2021/01/06 00:33:07;;;;;;;3.00;1.48;;;0.70;99.90;;;;;;5065429;28;20495;-76
2021/01/06 00:35:33;;;;;;;2.13;1.27;;;0.70;99.90;;;;;;5090722;28;20074;-76
2021/01/06 00:37:58;;;;;;;2.15;1.30;;;0.70;99.90;;;;;;5071390;28;20012;-76
2021/01/06 00:40:30;;;;;;;2.00;1.23;;;0.70;99.90;;;;;;5071164;28;20024;-76
2021/01/06 00:42:58;;;;;;;1.52;1.10;;;0.70;99.90;;;;;;5074672;28;20032;-76
2021/01/06 00:45:24;;;;;;;2.40;1.67;;;0.70;99.90;;;;;;5052874;28;20033;-76
2021/01/06 00:47:50;;;;;;;1.50;1.13;;;0.80;99.90;;;;;;5088461;28;20058;-76
2021/01/06 00:50:17;;;;;;;2.72;1.50;;;0.70;99.90;;;;;;5089249;28;20021;-77
2021/01/06 00:52:43;;;;;;;2.30;1.40;;;0.80;99.90;;;;;;5087249;28;20036;-76
2021/01/06 00:55:11;;;;;;;2.28;1.63;;;0.80;99.90;;;;;;5077332;28;20043;-77
2021/01/06 00:57:37;;;;;;;2.25;1.60;;;0.80;99.90;;;;;;5068978;28;20032;-77
2021/01/06 01:00:06;;;;;;;1.98;1.20;;;0.80;99.90;;;;;;5050982;28;20032;-77
2021/01/06 01:02:32;;;;;;;2.33;1.63;;;0.80;99.90;;;;;;5067473;28;20518;-76
2021/01/06 01:04:57;;;;;;;2.38;1.67;;;0.70;99.90;;;;;;5070307;28;20050;-77
2021/01/06 01:07:26;;;;;;;2.53;1.75;;;0.80;99.90;;;;;;5070245;28;20033;-76
2021/01/06 01:09:53;;;;;;;1.50;1.17;;;0.70;99.90;;;;;;5069012;28;20036;-77
2021/01/06 01:12:22;;;;;;;2.25;1.73;;;0.70;99.90;;;;;;5070155;28;20035;-77
2021/01/06 01:14:50;;;;;;;2.58;1.75;;;0.70;99.90;;;;;;5070042;28;20108;-77
2021/01/06 01:17:17;;;;;;;2.78;1.90;;;0.70;99.90;;;;;;5068605;28;20368;-77
2021/01/06 01:19:43;;;;;;;2.38;1.55;;;0.70;99.90;;;;;;5067634;28;20032;-77
2021/01/06 01:22:08;;;;;;;2.97;1.73;;;0.70;99.90;;;;;;5068676;28;20031;-77
2021/01/06 01:24:34;;;;;;;3.20;1.65;;;0.70;99.90;;;;;;5050028;28;20059;-77
2021/01/06 01:27:00;;;;;;;2.00;1.38;;;0.70;99.90;;;;;;5065012;28;20053;-77
2021/01/06 01:29:25;;;;;;;2.72;1.90;;;0.70;99.90;;;;;;5033792;28;20041;-77
2021/01/06 01:31:51;;;;;;;2.85;1.88;;;0.70;99.90;;;;;;5053062;28;20037;-77
2021/01/06 01:34:17;;;;;;;2.40;1.77;;;0.60;99.90;;;;;;5052424;28;20036;-77
2021/01/06 01:36:50;;;;;;;2.00;1.55;;;0.70;99.90;;;;;;5053780;28;20017;-77
2021/01/06 01:39:18;;;;;;;1.88;1.67;;;0.60;99.90;;;;;;5072715;28;20060;-77
2021/01/06 01:41:44;;;;;;;2.50;1.75;;;0.60;99.90;;;;;;5055431;28;20110;-77
2021/01/06 01:44:14;;;;;;;3.75;2.13;;;0.70;99.90;;;;;;5072424;28;20046;-77
2021/01/06 01:47:02;;;;;;;2.92;1.60;;;0.60;99.90;;;;;;5085136;28;20032;-77
2021/01/06 01:49:32;;;;;;;3.00;1.63;;;0.60;99.90;;;;;;5090880;28;20032;-77
2021/01/06 01:52:08;;;;;;;3.65;2.28;;;0.60;99.90;;;;;;5093439;28;20043;-76
2021/01/06 01:54:34;;;;;;;3.38;2.05;;;0.60;99.90;;;;;;5087204;28;20020;-77
2021/01/06 01:57:09;;;;;;;2.38;1.65;;;0.60;99.90;;;;;;5088960;28;20065;-76
2021/01/06 02:00:05;;;;;;;3.70;1.90;;;0.60;99.90;;;;;;5074442;28;20020;-76
2021/01/06 02:03:15;;;;;;;2.55;1.45;;;0.70;99.90;;;;;;5078326;28;20259;-77
2021/01/06 02:06:10;;;;;;;3.30;2.05;;;0.60;99.90;;;;;;5085876;28;20032;-76
2021/01/06 02:08:46;;;;;;;4.22;1.83;;;0.60;99.90;;;;;;5047645;28;20041;-76
2021/01/06 02:11:36;;;;;;;3.03;1.75;;;0.60;99.90;;;;;;5051388;28;20029;-76
2021/01/06 02:14:10;;;;;;;2.10;1.83;;;0.60;99.90;;;;;;5051683;28;20040;-76
2021/01/06 02:16:48;;;;;;;3.05;2.00;;;0.60;99.90;;;;;;5053063;28;20053;-77
2021/01/06 02:19:18;;;;;;;2.05;1.75;;;0.60;99.90;;;;;;5052498;28;20441;-76
2021/01/06 02:21:44;;;;;;;1.92;1.60;;;0.60;99.90;;;;;;5052353;28;20029;-76
2021/01/06 02:24:10;;;;;;;2.80;1.52;;;0.60;99.90;;;;;;5069635;28;20237;-76
2021/01/06 02:26:36;;;;;;;3.45;1.70;;;0.60;99.90;;;;;;5072925;28;20083;-76
2021/01/06 02:29:01;;;;;;;2.60;1.65;;;0.60;99.90;;;;;;5071158;28;20127;-77
2021/01/06 02:31:28;;;;;;;2.53;1.80;;;0.60;99.90;;;;;;5072105;28;20033;-77
2021/01/06 02:33:54;;;;;;;2.33;1.70;;;0.70;99.90;;;;;;5054641;28;20406;-77
2021/01/06 02:36:20;;;;;;;3.75;2.10;;;0.70;99.90;;;;;;5072696;28;20111;-76
2021/01/06 02:38:47;;;;;;;2.53;1.67;;;0.60;99.90;;;;;;5070806;28;20516;-77
2021/01/06 02:41:14;;;;;;;3.92;1.65;;;0.70;99.90;;;;;;5069940;28;20368;-77
2021/01/06 02:43:42;;;;;;;1.98;1.60;;;0.70;99.90;;;;;;5071527;28;20636;-76
2021/01/06 02:46:10;;;;;;;2.95;1.58;;;0.70;99.90;;;;;;5071101;28;20036;-77
2021/01/06 02:48:38;;;;;;;2.90;1.85;;;0.70;99.90;;;;;;5070766;28;20086;-76
2021/01/06 02:51:15;;;;;;;1.98;1.67;;;0.70;99.90;;;;;;5071670;28;20032;-77
2021/01/06 02:53:51;;;;;;;2.05;1.75;;;0.70;99.90;;;;;;5071108;28;20033;-76
2021/01/06 02:56:19;;;;;;;4.45;2.17;;;0.70;99.90;;;;;;5071314;28;20117;-77
2021/01/06 02:58:47;;;;;;;3.58;1.67;;;0.70;99.90;;;;;;5070594;28;20051;-77
2021/01/06 03:01:17;;;;;;;3.85;2.38;;;0.70;99.90;;;;;;5071511;28;20044;-77
2021/01/06 03:03:44;;;;;;;3.28;2.20;;;0.70;99.90;;;;;;5072125;28;20045;-77
2021/01/06 03:06:36;;;;;;;4.40;2.28;;;0.70;99.90;;;;;;5054201;28;20497;-78
2021/01/06 03:09:05;;;;;;;2.92;1.95;;;0.70;99.90;;;;;;5070354;28;20040;-77
2021/01/06 03:11:31;;;;;;;3.58;2.13;;;0.80;99.90;;;;;;5070377;28;20042;-77
2021/01/06 03:13:57;;;;;;;3.67;2.40;;;0.70;99.90;;;;;;5071927;28;20131;-77
2021/01/06 03:16:23;;;;;;;3.85;2.35;;;0.80;99.90;;;;;;5071658;28;20028;-76
2021/01/06 03:18:49;;;;;;;3.97;2.72;;;0.70;99.90;;;;;;5070320;28;20057;-77
2021/01/06 03:21:15;;;;;;;4.30;2.60;;;0.70;99.90;;;;;;5071255;28;20040;-77
2021/01/06 03:23:47;;;;;;;3.85;2.35;;;0.70;99.90;;;;;;5056412;28;20123;-76
2021/01/06 03:26:16;;;;;;;4.85;2.42;;;0.70;99.90;;;;;;5051637;28;20032;-77
2021/01/06 03:28:45;;;;;;;5.00;2.63;;;0.70;99.90;;;;;;5051182;28;20045;-76
2021/01/06 03:31:18;;;;;;;4.03;2.78;;;0.70;99.90;;;;;;5066211;28;20040;-76
2021/01/06 03:33:57;;;;;;;4.65;2.65;;;0.70;99.90;;;;;;5050308;28;20040;-77
2021/01/06 03:36:27;;;;;;;4.03;2.25;;;0.70;99.90;;;;;;5050294;28;20025;-77
2021/01/06 03:38:59;;;;;;;4.47;2.30;;;0.70;99.90;;;;;;5033185;28;20056;-77
2021/01/06 03:41:27;;;;;;;4.40;2.80;;;0.70;99.90;;;;;;5058880;28;20073;-77
2021/01/06 03:43:58;;;;;;;4.32;2.65;;;0.70;99.90;;;;;;5053643;28;20615;-77
2021/01/06 03:46:32;;;;;;;3.63;2.40;;;0.70;99.90;;;;;;5053338;28;20502;-77
2021/01/06 03:49:06;;;;;;;4.63;2.55;;;0.70;99.90;;;;;;5069419;28;20037;-77
2021/01/06 03:51:42;;;;;;;3.20;2.15;;;0.70;99.90;;;;;;5070441;28;20089;-77
2021/01/06 03:54:22;;;;;;;3.83;2.45;;;0.80;99.90;;;;;;5071276;28;20123;-77
2021/01/06 03:56:49;;;;;;;3.20;2.10;;;0.70;99.90;;;;;;5071179;28;20047;-77
2021/01/06 03:59:20;;;;;;;4.15;2.30;;;0.70;99.90;;;;;;5070340;28;20506;-78
2021/01/06 04:02:03;;;;;;;4.25;2.47;;;0.80;99.90;;;;;;5052962;28;20028;-77
2021/01/06 04:04:40;;;;;;;3.70;2.17;;;0.70;99.90;;;;;;5069984;28;20037;-77
2021/01/06 04:07:29;;;;;;;3.40;2.38;;;0.70;99.90;;;;;;5069913;28;20059;-77
2021/01/06 04:10:00;;;;;;;6.38;2.60;;;0.70;99.90;;;;;;5069209;28;20529;-76
2021/01/06 04:12:26;;;;;;;4.13;2.60;;;0.70;99.90;;;;;;5069436;28;20380;-77
2021/01/06 04:14:52;;;;;;;4.85;2.72;;;0.70;99.90;;;;;;5069487;28;20062;-76
2021/01/06 04:17:31;;;;;;;5.00;2.65;;;0.70;99.90;;;;;;5070711;28;20025;-76
2021/01/06 04:20:27;;;;;;;5.38;2.40;;;0.70;99.90;;;;;;5069582;28;20077;-76
2021/01/06 04:22:54;;;;;;;;;;;0.70;99.90;;;;;;5059620;28;20033;-76
2021/01/06 04:25:24;;;;;;;3.80;2.20;;;0.70;99.90;;;;;;5050841;28;19909;-76
2021/01/06 04:27:53;;;;;;;3.22;2.20;;;0.70;99.90;;;;;;5049469;28;20098;-77
2021/01/06 04:30:39;;;;;;;4.78;1.95;;;0.70;99.90;;;;;;5048982;28;20074;-76
2021/01/06 04:33:09;;;;;;;3.78;2.10;;;0.70;99.90;;;;;;5049537;28;20036;-76
2021/01/06 04:35:35;;;;;;;3.08;1.92;;;0.60;99.90;;;;;;5050755;28;20063;-76
2021/01/06 04:38:01;;;;;;;3.67;2.03;;;0.60;99.90;;;;;;5032337;28;20192;-76
2021/01/06 04:40:40;;;;;;;3.42;2.08;;;0.70;99.90;;;;;;5048623;28;20033;-77
2021/01/06 04:43:47;;;;;;;2.28;1.98;;;0.70;99.90;;;;;;5065845;28;20040;-76
2021/01/06 04:46:19;;;;;;;;;;;0.70;99.90;;;;;;5050402;28;20079;-77
2021/01/06 04:48:50;;;;;;;3.72;2.10;;;0.80;99.90;;;;;;5048803;28;20007;-77
2021/01/06 04:51:25;;;;;;;4.22;2.20;;;0.70;99.90;;;;;;5049667;28;20048;-76
2021/01/06 04:54:44;;;;;;;5.78;2.70;;;0.80;99.90;;;;;;5049217;28;20119;-77
2021/01/06 04:57:28;;;;;;;3.40;2.03;;;0.70;99.90;;;;;;5027709;28;20057;-76
2021/01/06 05:00:14;;;;;;;3.05;1.90;;;0.70;99.90;;;;;;5026436;28;20056;-76
2021/01/06 05:03:08;;;;;;;4.20;2.33;;;0.70;99.90;;;;;;5046563;28;20526;-77
2021/01/06 05:05:49;;;;;;;3.35;2.00;;;0.70;99.90;;;;;;5054384;28;20021;-76
2021/01/06 05:08:41;;;;;;;3.50;2.13;;;0.70;99.90;;;;;;5054067;28;20108;-77
2021/01/06 05:11:25;;;;;;;4.47;2.22;;;0.70;99.90;;;;;;5051332;28;20410;-77
2021/01/06 05:14:02;;;;;;;3.53;2.35;;;0.70;99.90;;;;;;5052647;28;20086;-77
2021/01/06 05:16:38;;;;;;;4.13;2.40;;;0.70;99.90;;;;;;5054134;28;20029;-77
2021/01/06 05:19:06;;;;;;;3.92;2.50;;;0.70;99.90;;;;;;5053509;28;20025;-77
2021/01/06 05:21:33;;;;;;;3.97;2.50;;;0.80;99.90;;;;;;5052257;28;20098;-77
2021/01/06 05:24:27;;;;;;;4.03;2.28;;;0.80;99.90;;;;;;5069150;28;20498;-76
2021/01/06 05:27:14;;;;;;;4.35;2.60;;;0.80;99.90;;;;;;5073777;28;20040;-76
2021/01/06 05:29:43;;;;;;;4.00;2.15;;;0.80;99.90;;;;;;5091894;28;20024;-76
2021/01/06 05:32:16;;;;;;;3.85;2.20;;;0.80;99.90;;;;;;5079367;28;20640;-77
2021/01/06 05:34:42;;;;;;;4.47;2.50;;;0.80;99.90;;;;;;5076393;28;20544;-77
2021/01/06 05:37:13;;;;;;;4.93;2.60;;;0.80;99.90;;;;;;5094198;28;20028;-76
2021/01/06 05:39:39;;;;;;;3.28;2.42;;;0.80;99.90;;;;;;5091686;28;20060;-76
2021/01/06 05:42:10;;;;;;;4.00;2.30;;;0.80;99.90;;;;;;5090770;28;20056;-77
2021/01/06 05:44:35;;;;;;;3.97;2.40;;;0.80;99.90;;;;;;5073068;28;20032;-76
2021/01/06 05:47:11;;;;;;;3.72;2.10;;;0.80;99.90;;;;;;5078408;28;20082;-76
2021/01/06 05:49:37;;;;;;;6.00;3.00;;;0.80;99.90;;;;;;5071205;28;20052;-77
2021/01/06 05:52:08;;;;;;;5.10;2.75;;;0.90;99.90;;;;;;5075229;28;20033;-77
2021/01/06 05:54:49;;;;;;;3.67;2.30;;;0.90;99.90;;;;;;5072530;28;20036;-76
2021/01/06 05:57:22;;;;;;;4.80;2.80;;;0.90;99.90;;;;;;5053546;28;20029;-77
2021/01/06 05:59:48;;;;;;;5.00;2.53;;;0.90;99.90;;;;;;5052167;28;20670;-77
2021/01/06 06:02:26;;;;;;;6.22;2.88;;;0.90;99.90;;;;;;5053625;28;20025;-76
2021/01/06 06:05:39;;;;;;;4.97;2.58;;;0.90;99.90;;;;;;5053491;28;20021;-76
2021/01/06 06:08:08;;;;;;;5.22;2.65;;;0.90;99.90;;;;;;5010352;28;20074;-77
2021/01/06 06:10:51;;;;;;;5.40;2.95;;;1.00;99.90;;;;;;5009396;28;20037;-77
2021/01/06 06:13:30;;;;;;;5.18;2.58;;;1.00;99.90;;;;;;5035930;28;20124;-76
2021/01/06 06:16:26;;;;;;;4.50;2.80;;;0.90;99.90;;;;;;5050615;28;20025;-77
2021/01/06 06:19:14;;;;;;;6.32;2.80;;;0.90;99.90;;;;;;5063883;28;20112;-76
2021/01/06 06:21:43;;;;;;;5.65;2.90;;;1.00;99.90;;;;;;5073605;28;20028;-77
2021/01/06 06:24:15;;;;;;;5.85;3.15;;;0.90;99.90;;;;;;5073951;28;20131;-76
2021/01/06 06:26:54;;;;;;;5.63;3.08;;;0.90;99.90;;;;;;5071125;28;20064;-77
2021/01/06 06:29:29;;;;;;;5.75;3.25;;;0.90;99.90;;;;;;5076730;28;20032;-76
2021/01/06 06:31:59;;;;;;;4.43;2.50;;;1.00;99.90;;;;;;5061849;28;20032;-77
2021/01/06 06:34:34;;;;;;;6.47;3.08;;;1.00;99.90;;;;;;5076677;28;20295;-77
2021/01/06 06:37:26;;;;;;;4.13;2.80;;;1.00;99.90;;;;;;5086359;28;20024;-76
2021/01/06 06:39:58;;;;;;;6.50;3.22;;;1.00;99.90;;;;;;5075497;28;20039;-77
2021/01/06 06:42:27;;;;;;;4.85;2.90;;;1.00;99.90;;;;;;5070847;28;20562;-77
2021/01/06 06:44:54;;;;;;;7.43;3.22;;;1.00;99.90;;;;;;5071525;28;20058;-76
2021/01/06 06:47:27;;;;;;;5.95;3.35;;;1.00;99.90;;;;;;5071584;28;20040;-77
2021/01/06 06:50:14;;;;;;;6.10;2.92;;;0.90;99.90;;;;;;5071286;28;20487;-76
2021/01/06 06:53:10;;;;;;;3.50;2.40;;;1.00;99.90;;;;;;5071159;28;20033;-76
2021/01/06 06:55:36;;;;;;;;;;;1.00;99.90;;;;;;5072852;28;20079;-76
2021/01/06 06:58:31;;;;;;;5.78;3.40;;;0.90;99.90;;;;;;5070724;28;19999;-76
2021/01/06 07:00:58;;;;;;;7.03;3.17;;;0.90;99.90;;;;;;5072114;28;20146;-76
2021/01/06 07:03:27;;;;;;;5.13;2.40;;;0.80;99.90;;;;;;5071065;28;20036;-76
2021/01/06 07:05:59;;;;;;;4.05;2.58;;;0.80;99.90;;;;;;5071135;28;20043;-76
2021/01/06 07:08:32;;;;;;;5.38;2.83;;;0.80;99.90;;;;;;5067944;28;20036;-76
2021/01/06 07:11:20;;;;;;;6.30;3.10;;;0.90;99.90;;;;;;5089218;28;20653;-76
2021/01/06 07:13:58;;;;;;;4.95;3.13;;;0.80;99.90;;;;;;5056757;28;20620;-76
2021/01/06 07:16:31;;;;;;;6.95;3.08;;;0.90;99.90;;;;;;5083792;28;20498;-76
2021/01/06 07:19:13;;;;;;;6.35;3.45;;;0.90;99.90;;;;;;5069712;28;20028;-76
2021/01/06 07:21:40;;;;;;;7.32;3.33;;;0.90;99.90;;;;;;5071295;28;20060;-77
2021/01/06 07:24:08;;;;;;;6.13;3.40;;;0.90;99.90;;;;;;5050470;28;20025;-76
2021/01/06 07:26:46;;;;;;;5.90;3.53;;;1.00;99.90;;;;;;5049976;28;20043;-77
2021/01/06 07:29:14;;;;;;;6.88;3.08;;;1.00;99.90;;;;;;5053483;28;20585;-76
2021/01/06 07:31:57;;;;;;;5.00;2.90;;;1.00;99.90;;;;;;5056569;28;20369;-78
2021/01/06 07:34:52;;;;;;;6.40;3.15;;;1.00;99.90;;;;;;5039989;28;20053;-77
2021/01/06 07:37:27;;;;;;;6.20;3.22;;;0.90;99.90;;;;;;5061903;28;20091;-78
2021/01/06 07:40:24;;;;;;;7.18;3.67;;;1.00;99.90;;;;;;5058444;28;20021;-78
2021/01/06 07:42:55;;;;;;;8.00;4.28;;;1.00;99.90;;;;;;5034374;28;20040;-77
2021/01/06 07:45:32;;;;;;;9.93;3.78;;;1.00;99.90;;;;;;5066990;28;20032;-77
2021/01/06 07:48:14;;;;;;;5.32;3.17;;;1.00;99.90;;;;;;5059256;28;20051;-77
2021/01/06 07:50:42;;;;;;;6.45;2.75;;;1.00;99.90;;;;;;5040852;28;20056;-77
2021/01/06 07:53:12;;;;;;;5.68;3.38;;;1.00;99.90;;;;;;5059324;28;20029;-77
2021/01/06 07:55:42;;;;;;;5.60;2.88;;;1.00;99.90;;;;;;5060406;28;20037;-77
2021/01/06 07:58:18;;;;;;;5.85;3.47;;;1.00;99.90;;;;;;5061024;28;20089;-77
2021/01/06 08:00:57;;;;;;;6.15;2.90;;;0.90;99.90;;;;;;5070335;28;20110;-77
2021/01/06 08:03:49;;;;;;;6.57;2.65;;;1.00;99.90;;;;;;5069135;28;20176;-77
2021/01/06 08:06:20;;;;;;;5.38;2.78;;;1.00;99.90;;;;;;5064265;28;20056;-77
2021/01/06 08:08:52;;;;;;;5.60;2.80;;;1.00;99.90;;;;;;5069083;28;20071;-78
2021/01/06 08:11:21;;;;;;;6.57;3.13;;;1.00;99.90;;;;;;5063361;28;20415;-77
2021/01/06 08:13:49;;;;;;;5.32;2.85;;;1.00;99.90;;;;;;5071397;28;20039;-79
2021/01/06 08:16:31;;;;;;;4.97;2.67;;;1.00;99.90;;;;;;5058066;28;20021;-78
2021/01/06 08:19:15;;;;;;;5.55;2.95;;;1.00;99.90;;;;;;5058475;28;20028;-77
2021/01/06 08:21:52;;;;;;;6.40;3.38;;;1.00;99.90;;;;;;5060846;28;20085;-78
2021/01/06 08:24:21;;;;;;;4.07;2.50;;;1.00;99.90;;;;;;5058504;28;20031;-77
2021/01/06 08:26:52;;;;;;;4.53;2.67;;;1.00;99.90;;;;;;5059150;28;20044;-77
2021/01/06 08:29:26;;;;;;;5.90;2.95;;;1.00;99.90;;;;;;5059929;28;20032;-77
2021/01/06 08:31:59;;;;;;;5.15;2.40;;;1.00;99.90;;;;;;5059003;28;20032;-77
2021/01/06 08:34:28;;;;;;;5.85;2.85;;;1.00;99.90;;;;;;5046387;28;20166;-77
2021/01/06 08:37:06;;;;;;;4.38;2.80;;;1.00;99.90;;;;;;5061026;28;20479;-77
2021/01/06 08:39:54;;;;;;;4.85;2.83;;;1.10;99.90;;;;;;5055582;28;20104;-77
2021/01/06 08:42:26;;;;;;;4.03;2.30;;;1.10;99.90;;;;;;5061521;28;20094;-77
2021/01/06 08:44:59;;;;;;;2.70;2.17;;;1.10;99.90;;;;;;5058777;28;20488;-77
2021/01/06 08:47:35;;;;;;;3.53;2.33;;;1.10;99.90;;;;;;5049646;28;20123;-77
2021/01/06 08:50:16;;;;;;;3.53;2.35;;;1.10;99.90;;;;;;5048955;28;20040;-77
2021/01/06 08:52:57;;;;;;;4.22;2.17;;;1.10;99.90;;;;;;5049902;28;20426;-77
2021/01/06 08:55:47;;;;;;;3.97;2.30;;;1.20;99.90;;;;;;5053764;28;20028;-78
2021/01/06 08:58:14;;;;;;;4.70;2.70;;;1.20;99.90;;;;;;5067344;28;20039;-77
2021/01/06 09:00:42;;;;;;;3.28;2.30;;;1.20;99.90;;;;;;5069248;28;20115;-77
2021/01/06 09:03:36;;;;;;;4.28;2.40;;;1.30;99.90;;;;;;5035164;28;20649;-77
2021/01/06 09:06:10;;;;;;;2.33;2.08;;;1.30;99.90;;;;;;5070347;28;20368;-77
2021/01/06 09:08:36;;;;;;;3.83;2.33;;;1.30;99.90;;;;;;5053944;28;20028;-77
2021/01/06 09:11:07;;;;;;;3.25;2.03;;;1.40;99.90;;;;;;5056870;28;20391;-77
2021/01/06 09:13:42;;;;;;;2.97;1.88;;;1.40;99.90;;;;;;5059944;28;20040;-77
2021/01/06 09:16:20;;;;;;;4.43;2.30;;;1.40;99.90;;;;;;5058528;28;20021;-77
2021/01/06 09:19:06;;;;;;;3.40;1.88;;;1.40;99.90;;;;;;5058953;28;20029;-77
2021/01/06 09:21:33;;;;;;;2.38;1.92;;;1.40;99.90;;;;;;5067918;28;20034;-77
2021/01/06 09:24:17;;;;;;;4.10;1.80;;;1.50;99.90;;;;;;5060238;28;20071;-77
2021/01/06 09:26:46;;;;;;;3.42;1.92;;;1.40;99.90;;;;;;5064327;28;21437;-77
2021/01/06 09:29:17;;;;;;;3.72;1.95;;;1.50;99.90;;;;;;5060888;28;20112;-77
2021/01/06 09:31:51;;;;;;;2.78;2.20;;;1.50;99.90;;;;;;5038123;28;20021;-77
2021/01/06 09:34:19;;;;;;;2.83;1.75;;;1.50;99.90;;;;;;5059915;28;20043;-77
2021/01/06 09:36:47;;;;;;;2.53;1.73;;;1.50;99.90;;;;;;5062893;28;20104;-77
2021/01/06 09:39:18;;;;;;;3.22;1.92;;;1.60;99.90;;;;;;5057002;28;20032;-78
2021/01/06 09:41:45;;;;;;;3.20;1.88;;;1.60;99.90;;;;;;5056820;28;20112;-77
2021/01/06 09:44:11;;;;;;;3.97;1.63;;;1.60;99.90;;;;;;5058048;28;20040;-77
2021/01/06 09:46:50;;;;;;;2.65;1.60;;;1.60;99.90;;;;;;5062258;28;20483;-78
2021/01/06 09:49:37;;;;;;;3.13;1.70;;;1.70;99.90;;;;;;5056340;28;20025;-77
2021/01/06 09:52:38;;;;;;;2.53;1.55;;;1.70;99.90;;;;;;5060623;28;20432;-77
2021/01/06 09:55:06;;;;;;;2.40;1.42;;;1.70;99.90;;;;;;5060110;28;20029;-77
2021/01/06 09:57:33;;;;;;;2.65;1.73;;;1.70;99.90;;;;;;5066218;28;20478;-77
2021/01/06 10:00:10;;;;;;;1.73;1.42;;;1.70;99.90;;;;;;5057700;28;20376;-77
2021/01/06 10:02:37;;;;;;;4.07;1.50;;;1.70;99.90;;;;;;5063780;28;20055;-78
2021/01/06 10:05:46;;;;;;;3.00;1.60;;;1.70;99.90;;;;;;5063966;28;20033;-78
2021/01/06 10:08:37;;;;;;;2.55;2.10;;;1.70;99.90;;;;;;5062731;28;20554;-77
2021/01/06 10:11:33;;;;;;;2.40;1.45;;;1.80;99.90;;;;;;5063248;28;20515;-77
2021/01/06 10:14:24;;;;;;;2.20;1.67;;;1.80;99.90;;;;;;5055548;28;20063;-77
2021/01/06 10:17:04;;;;;;;2.72;1.70;;;1.80;99.90;;;;;;5063892;28;20419;-77
2021/01/06 10:19:45;;;;;;;3.97;1.92;;;1.80;99.90;;;;;;5043107;28;20476;-78
2021/01/06 10:22:34;;;;;;;2.30;1.65;;;1.80;99.90;;;;;;5057796;28;20039;-78
2021/01/06 10:25:07;;;;;;;4.25;2.15;;;1.80;99.90;;;;;;5046646;28;20024;-78
2021/01/06 10:27:52;;;;;;;3.35;1.70;;;1.80;99.90;;;;;;5064697;28;20029;-77
2021/01/06 10:30:20;;;;;;;2.83;1.70;;;1.80;99.90;;;;;;5065733;28;20691;-78
2021/01/06 10:33:04;;;;;;;1.73;1.55;;;1.80;99.90;;;;;;5068028;28;20486;-78
2021/01/06 10:35:43;;;;;;;2.78;2.00;;;1.80;99.90;;;;;;5064516;28;20033;-77
2021/01/06 10:38:22;;;;;;;2.08;1.55;;;1.80;99.90;;;;;;5063454;28;20029;-77
2021/01/06 10:40:49;;;;;;;1.88;1.45;;;1.80;99.90;;;;;;5044988;28;20025;-77
2021/01/06 10:43:38;;;;;;;2.25;1.50;;;1.90;99.90;;;;;;5042730;28;20024;-78
2021/01/06 10:46:42;;;;;;;1.77;1.60;;;1.90;99.90;;;;;;5060878;28;20029;-77
2021/01/06 10:49:13;;;;;;;3.00;1.85;;;1.90;99.90;;;;;;5058346;28;20025;-78
2021/01/06 10:51:57;;;;;;;2.20;1.85;;;1.90;99.90;;;;;;5058590;28;20094;-77
2021/01/06 10:54:32;;;;;;;1.90;1.45;;;1.90;99.90;;;;;;5061235;28;20048;-77
2021/01/06 10:57:00;;;;;;;2.42;1.55;;;2.00;99.90;;;;;;5056932;28;20035;-79
2021/01/06 10:59:26;;;;;;;2.28;1.70;;;2.00;99.90;;;;;;5061451;28;20033;-78
2021/01/06 11:02:19;;;;;;;2.22;1.73;;;2.00;99.90;;;;;;5056417;28;20036;-79
2021/01/06 11:05:08;;;;;;;2.65;1.70;;;2.10;99.90;;;;;;5058147;28;20024;-79
2021/01/06 11:08:21;;;;;;;1.55;1.30;;;2.20;99.90;;;;;;5056198;28;20029;-78
2021/01/06 11:10:56;;;;;;;2.40;1.75;;;2.30;99.90;;;;;;4977396;28;20026;-77
2021/01/06 11:13:28;;;;;;;3.50;1.80;;;2.40;99.90;;;;;;5044792;28;20040;-79
2021/01/06 11:16:05;;;;;;;2.40;1.65;;;2.50;99.90;;;;;;5044204;28;20277;-77
2021/01/06 11:18:38;;;;;;;2.20;1.83;;;2.60;99.90;;;;;;5059515;28;20021;-78
2021/01/06 11:21:14;;;;;;;3.38;1.48;;;2.60;99.90;;;;;;5030678;28;20052;-78
2021/01/06 11:23:59;;;;;;;3.58;2.10;;;2.60;99.90;;;;;;5042583;28;20402;-78
2021/01/06 11:26:31;;;;;;;3.47;2.00;;;2.60;99.90;;;;;;5052957;28;20115;-78
2021/01/06 11:29:35;;;;;;;2.67;1.63;;;2.70;99.90;;;;;;5054250;28;20548;-79
2021/01/06 11:32:00;;;;;;;3.22;2.05;;;2.70;99.90;;;;;;5067835;28;20042;-77
2021/01/06 11:34:32;;;;;;;3.97;1.80;;;2.70;99.90;;;;;;5067183;28;20028;-79
2021/01/06 11:37:00;;;;;;;3.67;2.13;;;2.80;99.90;;;;;;5069969;28;20023;-77
2021/01/06 11:39:38;;;;;;;2.70;1.60;;;2.70;99.90;;;;;;5077404;28;20129;-78
2021/01/06 11:42:16;;;;;;;2.42;1.63;;;2.70;99.90;;;;;;5061062;28;20024;-78
2021/01/06 11:45:11;;;;;;;3.28;1.83;;;2.70;99.90;;;;;;5060575;28;20060;-78
2021/01/06 11:47:57;;;;;;;3.40;1.80;;;2.60;99.90;;;;;;5060580;28;20693;-78
2021/01/06 11:50:32;;;;;;;1.52;1.10;;;2.60;99.90;;;;;;5055257;28;20107;-77
2021/01/06 11:53:30;;;;;;;2.25;1.38;;;2.60;99.90;;;;;;5038439;28;20028;-77
2021/01/06 11:56:15;;;;;;;3.45;1.70;;;2.60;99.90;;;;;;5063653;28;20422;-78
2021/01/06 11:58:54;;;;;;;3.50;1.45;;;2.60;99.90;;;;;;5065080;28;20055;-78
2021/01/06 12:01:50;;;;;;;2.05;1.20;;;2.60;99.90;;;;;;5065906;28;20626;-77
2021/01/06 12:04:50;;;;;;;2.92;1.90;;;2.50;99.90;;;;;;5042604;28;20025;-78
2021/01/06 12:07:29;;;;;;;2.83;1.70;;;2.50;99.90;;;;;;5044211;28;20104;-78
2021/01/06 12:10:06;;;;;;;3.20;1.92;;;2.60;99.90;;;;;;5042735;28;20029;-78
2021/01/06 12:12:55;;;;;;;2.40;1.90;;;2.50;99.90;;;;;;5025681;28;20064;-79
2021/01/06 12:15:27;;;;;;;2.40;1.60;;;2.50;99.90;;;;;;5027885;28;20491;-78
2021/01/06 12:17:56;;;;;;;1.40;0.93;;;2.50;99.90;;;;;;5058506;28;20021;-78
2021/01/06 12:20:35;;;;;;;2.65;1.90;;;2.60;99.90;;;;;;5043153;28;20060;-78
2021/01/06 12:23:38;;;;;;;4.60;2.63;;;2.60;99.90;;;;;;5049207;28;20032;-78
2021/01/06 12:26:05;;;;;;;2.10;1.80;;;2.60;99.90;;;;;;5039431;28;20138;-79
2021/01/06 12:28:53;;;;;;;2.35;1.67;;;2.50;99.90;;;;;;5029625;28;20650;-78
2021/01/06 12:31:41;;;;;;;2.25;1.48;;;2.60;99.90;;;;;;5045106;28;20029;-78
2021/01/06 12:34:22;;;;;;;1.48;1.33;;;2.60;99.90;;;;;;5056993;28;20029;-77
2021/01/06 12:37:12;;;;;;;2.05;1.58;;;2.60;99.90;;;;;;5073231;28;20032;-77
2021/01/06 12:39:44;;;;;;;3.33;1.88;;;2.60;99.90;;;;;;5040056;28;20024;-78
2021/01/06 12:42:25;;;;;;;1.77;1.60;;;2.60;99.90;;;;;;5061917;28;20608;-77
2021/01/06 12:45:03;;;;;;;2.72;1.58;;;2.70;99.90;;;;;;5056538;28;20055;-79
2021/01/06 12:47:36;;;;;;;1.33;1.13;;;2.70;99.90;;;;;;5063233;28;20111;-78
2021/01/06 12:50:12;;;;;;;2.25;1.50;;;2.70;99.90;;;;;;5061520;28;20147;-78
2021/01/06 12:52:42;;;;;;;2.55;1.20;;;2.70;99.90;;;;;;5062909;28;20093;-78
2021/01/06 12:55:23;;;;;;;2.05;1.50;;;2.70;99.90;;;;;;5062402;28;20109;-78
2021/01/06 12:57:54;;;;;;;3.08;1.50;;;2.70;99.90;;;;;;5055979;28;20471;-77
2021/01/06 13:00:30;;;;;;;3.90;2.15;;;2.70;99.90;;;;;;5057543;28;20024;-78
2021/01/06 13:03:36;;;;;;;2.05;1.42;;;2.70;99.90;;;;;;5048441;28;20039;-77
2021/01/06 13:06:10;;;;;;;2.08;1.50;;;2.70;99.90;;;;;;5067424;28;20090;-77
2021/01/06 13:09:02;;;;;;;1.92;1.35;;;2.70;99.90;;;;;;5056042;28;20032;-78
2021/01/06 13:11:56;;;;;;;2.72;1.60;;;2.60;99.90;;;;;;5045427;28;20032;-77
2021/01/06 13:14:34;;;;;;;3.05;1.60;;;2.60;99.90;;;;;;5061216;28;20039;-77
2021/01/06 13:17:14;;;;;;;1.52;1.20;;;2.60;99.90;;;;;;5058186;28;20033;-77
2021/01/06 13:20:01;;;;;;;2.25;1.60;;;2.50;99.90;;;;;;5046853;28;20060;-76
2021/01/06 13:22:42;;;;;;;3.53;2.30;;;2.50;99.90;;;;;;5053187;28;20047;-77
2021/01/06 13:25:14;;;;;;;3.47;1.90;;;2.50;99.90;;;;;;5063408;28;20025;-77
2021/01/06 13:27:40;;;;;;;3.42;1.60;;;2.50;99.90;;;;;;5058799;28;20471;-77
2021/01/06 13:30:23;;;;;;;3.00;1.55;;;2.50;99.90;;;;;;5062110;28;20032;-77
2021/01/06 13:33:13;;;;;;;3.30;1.80;;;2.50;99.90;;;;;;5061566;28;20044;-77
2021/01/06 13:35:41;;;;;;;2.83;1.85;;;2.40;99.90;;;;;;5060693;28;20203;-77
2021/01/06 13:38:13;;;;;;;2.15;1.45;;;2.40;99.90;;;;;;5056750;28;20438;-77
2021/01/06 13:40:43;;;;;;;4.18;2.17;;;2.40;99.90;;;;;;5039244;28;20040;-77
2021/01/06 13:43:49;;;;;;;1.75;1.13;;;2.30;99.90;;;;;;5055404;28;20024;-77